createdAt,value
2022-08-20T00:02:54.498Z,25.30
2022-08-20T00:07:57.588Z,29.00
2022-08-20T00:13:01.169Z,25.98
2022-08-20T00:18:05.584Z,33.92
2022-08-20T00:23:10.612Z,33.22
2022-08-20T00:28:14.458Z,32.00
2022-08-20T00:33:20.350Z,34.35
2022-08-20T00:38:24.212Z,25.65
2022-08-20T00:43:51.922Z,32.72
2022-08-20T00:48:56.258Z,29.25
2022-08-20T00:54:07.204Z,27.70
2022-08-20T00:59:15.133Z,33.47
2022-08-20T01:04:18.249Z,28.45
2022-08-20T01:09:50.131Z,24.00
2022-08-20T01:14:46.957Z,25.48
2022-08-20T01:19:55.697Z,24.83
2022-08-20T01:25:17.549Z,28.48
2022-08-20T01:35:24.336Z,27.80
2022-08-20T01:40:48.228Z,20.13
2022-08-20T01:45:52.992Z,21.55
2022-08-20T01:51:06.397Z,23.58
2022-08-20T01:56:14.354Z,24.33
2022-08-20T02:01:45.869Z,26.35
2022-08-20T02:06:57.946Z,19.25
2022-08-20T02:12:03.048Z,20.20
2022-08-20T02:17:07.267Z,23.15
2022-08-20T02:22:38.069Z,16.88
2022-08-20T02:27:43.271Z,19.37
2022-08-20T02:32:47.439Z,15.60
2022-08-20T02:37:51.296Z,10.90
2022-08-20T02:42:54.950Z,14.30
2022-08-20T02:47:59.142Z,13.40
2022-08-20T02:53:02.023Z,13.88
2022-08-20T02:58:04.841Z,14.63
2022-08-20T03:03:10.541Z,12.02
2022-08-20T03:08:14.907Z,14.68
2022-08-20T03:13:19.789Z,12.65
2022-08-20T03:18:25.526Z,14.50
2022-08-20T03:23:28.352Z,12.15
2022-08-20T03:28:31.210Z,17.58
2022-08-20T03:33:34.091Z,28.65
2022-08-20T03:38:37.075Z,31.25
2022-08-20T03:43:41.148Z,34.65
2022-08-20T03:48:43.817Z,37.88
2022-08-20T03:53:46.793Z,39.28
2022-08-20T03:58:49.660Z,42.17
2022-08-20T04:03:55.226Z,39.03
2022-08-20T04:08:58.150Z,39.20
2022-08-20T04:14:00.821Z,48.28
2022-08-20T04:19:05.206Z,34.65
2022-08-20T04:24:07.951Z,32.17
2022-08-20T04:29:32.422Z,32.92
2022-08-20T04:34:35.990Z,33.55
2022-08-20T04:39:38.674Z,25.40
2022-08-20T04:44:41.368Z,26.05
2022-08-20T04:49:45.338Z,29.08
2022-08-20T04:54:48.087Z,26.33
2022-08-20T04:59:56.559Z,34.53
2022-08-20T05:05:02.097Z,30.47
2022-08-20T05:10:06.571Z,26.88
2022-08-20T05:15:13.644Z,23.90
2022-08-20T05:20:19.266Z,26.92
2022-08-20T05:25:22.305Z,26.55
2022-08-20T05:30:25.013Z,27.58
2022-08-20T05:35:29.004Z,25.80
2022-08-20T05:40:32.416Z,25.92
2022-08-20T05:45:37.914Z,22.55
2022-08-20T05:50:43.205Z,23.05
2022-08-20T05:55:46.512Z,22.17
2022-08-20T06:00:51.901Z,23.70
2022-08-20T06:05:54.591Z,21.83
2022-08-20T06:10:57.389Z,21.75
2022-08-20T06:16:01.749Z,23.80
2022-08-20T06:21:09.654Z,22.42
2022-08-20T06:26:12.375Z,17.38
2022-08-20T06:31:15.320Z,17.10
2022-08-20T06:36:19.024Z,16.10
2022-08-20T06:41:22.055Z,20.77
2022-08-20T06:46:24.882Z,14.73
2022-08-20T06:51:27.791Z,21.40
2022-08-20T06:56:30.415Z,18.75
2022-08-20T07:01:33.114Z,19.05
2022-08-20T07:06:36.767Z,14.65
2022-08-20T07:11:39.380Z,13.23
2022-08-20T07:16:42.526Z,16.38
2022-08-20T07:21:45.121Z,15.30
2022-08-20T07:26:49.465Z,16.75
2022-08-20T07:32:10.863Z,15.45
2022-08-20T07:37:13.938Z,17.50
2022-08-20T07:42:17.207Z,10.00
2022-08-20T07:47:19.917Z,21.80
2022-08-20T07:52:22.892Z,10.68
2022-08-20T07:57:25.757Z,11.00
2022-08-20T08:02:28.786Z,16.92
2022-08-20T08:07:32.688Z,13.85
2022-08-20T08:12:43.385Z,15.98
2022-08-20T08:17:48.834Z,17.65
2022-08-20T08:22:52.726Z,12.25
2022-08-20T08:27:55.416Z,11.02
2022-08-20T08:33:16.804Z,13.23
2022-08-20T08:38:19.609Z,16.70
2022-08-20T08:43:31.652Z,14.15
2022-08-20T08:48:38.657Z,22.13
2022-08-20T08:53:56.986Z,18.23
2022-08-20T08:59:06.200Z,20.85
2022-08-20T09:04:09.710Z,15.18
2022-08-20T09:09:26.123Z,19.08
2022-08-20T09:14:28.787Z,19.35
2022-08-20T09:19:32.096Z,21.13
2022-08-20T09:24:34.754Z,17.77
2022-08-20T09:29:37.606Z,18.13
2022-08-20T09:34:43.706Z,18.05
2022-08-20T09:39:47.809Z,15.27
2022-08-20T09:44:51.084Z,18.15
2022-08-20T09:49:54.637Z,22.15
2022-08-20T09:55:01.792Z,31.35
2022-08-20T10:00:09.469Z,24.30
2022-08-20T10:05:14.989Z,20.27
2022-08-20T10:10:18.052Z,19.88
2022-08-20T10:15:20.890Z,16.80
2022-08-20T10:20:24.892Z,20.75
2022-08-20T10:25:28.920Z,21.50
2022-08-20T10:30:31.687Z,16.98
2022-08-20T10:35:34.313Z,23.92
2022-08-20T10:40:37.018Z,21.17
2022-08-20T10:45:40.379Z,23.25
2022-08-20T10:50:43.293Z,20.42
2022-08-20T10:55:46.488Z,20.23
2022-08-20T11:00:49.265Z,23.42
2022-08-20T11:05:51.981Z,17.92
2022-08-20T11:10:55.033Z,20.08
2022-08-20T11:15:57.918Z,18.73
2022-08-20T11:21:01.543Z,16.52
2022-08-20T11:26:04.270Z,17.63
2022-08-20T11:31:06.958Z,15.15
2022-08-20T11:36:09.869Z,22.20
2022-08-20T11:41:12.525Z,13.90
2022-08-20T11:46:15.493Z,17.33
2022-08-20T11:51:18.129Z,11.18
2022-08-20T11:56:21.823Z,16.10
2022-08-20T12:01:24.594Z,12.48
2022-08-20T12:06:27.297Z,15.10
2022-08-20T12:11:30.191Z,14.23
2022-08-20T12:16:32.870Z,13.27
2022-08-20T12:21:35.671Z,15.70
2022-08-20T12:26:38.491Z,11.13
2022-08-20T12:31:41.138Z,12.30
2022-08-20T12:36:43.736Z,15.15
2022-08-20T12:41:46.559Z,10.68
2022-08-20T12:46:49.226Z,19.88
2022-08-20T12:51:51.928Z,9.63
2022-08-20T12:56:54.839Z,10.93
2022-08-20T13:01:58.242Z,14.23
2022-08-20T13:07:16.776Z,9.40
2022-08-20T13:12:20.817Z,16.10
2022-08-20T13:17:38.101Z,9.95
2022-08-20T13:22:42.354Z,17.10
2022-08-20T13:27:45.105Z,8.13
2022-08-20T13:32:47.921Z,19.35
2022-08-20T13:37:51.161Z,14.27
2022-08-20T13:42:53.990Z,16.85
2022-08-20T13:47:56.901Z,22.17
2022-08-20T13:52:59.713Z,20.45
2022-08-20T13:58:06.794Z,15.93
2022-08-20T14:03:09.481Z,17.17
2022-08-20T14:08:20.865Z,22.75
2022-08-20T14:13:26.284Z,23.60
2022-08-20T14:18:29.042Z,26.17
2022-08-20T14:23:31.685Z,13.85
2022-08-20T14:28:39.634Z,21.42
2022-08-20T14:33:44.711Z,20.02
2022-08-20T14:38:47.516Z,24.90
2022-08-20T14:43:50.176Z,19.52
2022-08-20T14:48:53.511Z,23.48
2022-08-20T14:53:56.530Z,16.17
2022-08-20T14:58:59.381Z,26.90
2022-08-20T15:04:02.065Z,17.17
2022-08-20T15:09:04.667Z,12.70
2022-08-20T15:14:08.715Z,18.55
2022-08-20T15:19:11.637Z,15.80
2022-08-20T15:24:18.818Z,10.93
2022-08-20T15:29:22.978Z,13.15
2022-08-20T15:34:26.042Z,15.88
2022-08-20T15:39:28.681Z,13.50
2022-08-20T15:44:31.443Z,15.90
2022-08-20T15:49:34.335Z,10.25
2022-08-20T15:54:37.553Z,13.35
2022-08-20T15:59:55.493Z,12.35
2022-08-20T16:05:36.999Z,14.15
2022-08-20T16:10:58.690Z,14.57
2022-08-20T16:16:03.435Z,9.52
2022-08-20T16:21:10.720Z,15.73
2022-08-20T16:26:31.276Z,9.82
2022-08-20T16:32:04.369Z,8.32
2022-08-20T16:37:38.566Z,8.40
2022-08-20T16:42:45.826Z,13.70
2022-08-20T16:47:50.959Z,21.02
2022-08-20T16:52:53.727Z,9.43
2022-08-20T16:57:56.782Z,10.75
2022-08-20T17:03:31.441Z,10.07
2022-08-20T17:08:48.415Z,12.18
2022-08-20T17:14:04.509Z,9.80
2022-08-20T17:19:10.954Z,14.77
2022-08-20T17:24:33.954Z,11.82
2022-08-20T17:29:52.594Z,10.93
2022-08-20T17:34:58.166Z,8.77
2022-08-20T17:40:16.150Z,10.52
2022-08-20T17:45:25.108Z,5.85
2022-08-20T17:50:32.572Z,13.23
2022-08-20T17:55:36.744Z,8.43
2022-08-20T18:00:39.848Z,12.63
2022-08-20T18:05:44.122Z,11.38
2022-08-20T18:10:56.961Z,9.60
2022-08-20T18:16:01.755Z,7.88
2022-08-20T18:21:32.199Z,10.70
2022-08-20T18:26:41.160Z,8.30
2022-08-20T18:31:49.882Z,15.48
2022-08-20T18:37:00.909Z,10.88
2022-08-20T18:42:22.299Z,9.70
2022-08-20T18:47:33.640Z,12.90
2022-08-20T18:52:41.651Z,12.50
2022-08-20T18:57:57.415Z,6.32
2022-08-20T19:03:14.199Z,17.17
2022-08-20T19:08:21.124Z,10.35
2022-08-20T19:13:40.087Z,7.90
2022-08-20T19:18:48.170Z,14.88
2022-08-20T19:23:56.206Z,8.43
2022-08-20T19:29:10.832Z,11.77
2022-08-20T19:34:22.155Z,15.27
2022-08-20T19:44:36.609Z,11.52
2022-08-20T19:49:57.396Z,17.15
2022-08-20T19:55:03.893Z,14.53
2022-08-20T20:00:12.927Z,19.92
2022-08-20T20:05:17.192Z,16.90
2022-08-20T20:10:33.076Z,14.38
2022-08-20T20:15:37.970Z,20.38
2022-08-20T20:20:57.676Z,16.58
2022-08-20T20:26:04.479Z,20.90
2022-08-20T20:31:10.025Z,20.02
2022-08-20T20:36:18.284Z,15.85
2022-08-20T20:41:26.005Z,16.63
2022-08-20T20:46:30.989Z,19.60
2022-08-20T20:51:39.115Z,27.80
2022-08-20T20:56:43.577Z,26.98
2022-08-20T21:01:49.182Z,22.27
2022-08-20T21:06:56.834Z,25.10
2022-08-20T21:11:59.614Z,23.35
2022-08-20T21:17:05.848Z,27.17
2022-08-20T21:22:09.311Z,24.27
2022-08-20T21:27:13.034Z,27.75
2022-08-20T21:32:17.593Z,22.65
2022-08-20T21:37:20.364Z,24.83
2022-08-20T21:42:29.225Z,26.92
2022-08-20T21:47:32.600Z,27.60
2022-08-20T21:52:36.007Z,21.52
2022-08-20T21:57:39.045Z,23.75
2022-08-20T22:02:41.701Z,33.53
2022-08-20T22:07:44.859Z,26.35
2022-08-20T22:12:47.508Z,25.60
2022-08-20T22:17:50.133Z,24.63
2022-08-20T22:22:52.814Z,25.90
2022-08-20T22:27:55.512Z,25.45
2022-08-20T22:33:03.176Z,29.08
2022-08-20T22:38:06.109Z,27.92
2022-08-20T22:43:09.507Z,28.10
2022-08-20T22:48:16.485Z,26.27
2022-08-20T22:53:22.096Z,30.38
2022-08-20T22:58:31.159Z,28.30
2022-08-20T23:03:40.269Z,31.95
2022-08-20T23:08:45.157Z,29.13
2022-08-20T23:13:47.814Z,32.10
2022-08-20T23:18:50.676Z,30.35
2022-08-20T23:23:53.455Z,28.90
2022-08-20T23:28:56.263Z,29.30
2022-08-20T23:33:58.853Z,29.50
2022-08-20T23:39:01.628Z,37.75
2022-08-20T23:44:25.407Z,30.45
2022-08-20T23:49:31.737Z,32.35
2022-08-20T23:54:34.399Z,38.75
2022-08-20T23:59:37.148Z,31.27
